sensor_id;sensor_type;location;lat;lon;timestamp;temperature;humidity
4643;DHT22;2334;48.710;9.622;2024-02-28T00:01:07;7.30;99.90
4643;DHT22;2334;48.710;9.622;2024-02-28T00:03:33;7.30;99.90
4643;DHT22;2334;48.710;9.622;2024-02-28T00:06:00;7.30;99.90
4643;DHT22;2334;48.710;9.622;2024-02-28T00:08:28;7.30;99.90
4643;DHT22;2334;48.710;9.622;2024-02-28T00:10:55;7.20;99.90
4643;DHT22;2334;48.710;9.622;2024-02-28T00:13:22;7.20;99.90
4643;DHT22;2334;48.710;9.622;2024-02-28T00:15:50;7.20;99.90
4643;DHT22;2334;48.710;9.622;2024-02-28T00:18:17;7.20;99.90
4643;DHT22;2334;48.710;9.622;2024-02-28T00:20:44;7.20;99.90
4643;DHT22;2334;48.710;9.622;2024-02-28T00:23:11;7.10;99.90
4643;DHT22;2334;48.710;9.622;2024-02-28T00:25:40;7.10;99.90
4643;DHT22;2334;48.710;9.622;2024-02-28T00:28:06;7.10;99.90
4643;DHT22;2334;48.710;9.622;2024-02-28T00:30:33;7.00;99.90
4643;DHT22;2334;48.710;9.622;2024-02-28T00:33:00;7.00;99.90
4643;DHT22;2334;48.710;9.622;2024-02-28T00:35:30;7.10;99.90
4643;DHT22;2334;48.710;9.622;2024-02-28T00:37:58;7.10;99.90
4643;DHT22;2334;48.710;9.622;2024-02-28T00:40:25;7.10;99.90
4643;DHT22;2334;48.710;9.622;2024-02-28T00:42:54;7.10;99.90
4643;DHT22;2334;48.710;9.622;2024-02-28T00:45:20;7.10;99.90
4643;DHT22;2334;48.710;9.622;2024-02-28T00:47:48;7.00;99.90
4643;DHT22;2334;48.710;9.622;2024-02-28T00:50:15;7.10;99.90
4643;DHT22;2334;48.710;9.622;2024-02-28T00:52:41;7.00;99.90
4643;DHT22;2334;48.710;9.622;2024-02-28T00:55:09;7.00;99.90
4643;DHT22;2334;48.710;9.622;2024-02-28T00:57:35;7.10;99.90
4643;DHT22;2334;48.710;9.622;2024-02-28T01:00:05;7.00;99.90
4643;DHT22;2334;48.710;9.622;2024-02-28T01:02:32;7.00;99.90
4643;DHT22;2334;48.710;9.622;2024-02-28T01:04:59;7.00;99.90
4643;DHT22;2334;48.710;9.622;2024-02-28T01:07:26;7.00;99.90
4643;DHT22;2334;48.710;9.622;2024-02-28T01:09:54;7.00;99.90
4643;DHT22;2334;48.710;9.622;2024-02-28T01:12:20;7.00;99.90
4643;DHT22;2334;48.710;9.622;2024-02-28T01:14:47;7.00;99.90
4643;DHT22;2334;48.710;9.622;2024-02-28T01:17:16;7.00;99.90
4643;DHT22;2334;48.710;9.622;2024-02-28T01:19:43;7.00;99.90
4643;DHT22;2334;48.710;9.622;2024-02-28T01:22:09;7.00;99.90
4643;DHT22;2334;48.710;9.622;2024-02-28T01:24:37;6.90;99.90
4643;DHT22;2334;48.710;9.622;2024-02-28T01:27:03;6.90;99.90
4643;DHT22;2334;48.710;9.622;2024-02-28T01:29:30;6.90;99.90
4643;DHT22;2334;48.710;9.622;2024-02-28T01:31:58;6.90;99.90
4643;DHT22;2334;48.710;9.622;2024-02-28T01:34:26;6.90;99.90
4643;DHT22;2334;48.710;9.622;2024-02-28T01:36:53;6.80;99.90
4643;DHT22;2334;48.710;9.622;2024-02-28T01:39:20;6.80;99.90
4643;DHT22;2334;48.710;9.622;2024-02-28T01:41:53;6.80;99.90
4643;DHT22;2334;48.710;9.622;2024-02-28T01:44:20;6.60;99.90
4643;DHT22;2334;48.710;9.622;2024-02-28T01:46:47;6.60;99.90
4643;DHT22;2334;48.710;9.622;2024-02-28T01:49:16;6.60;99.90
4643;DHT22;2334;48.710;9.622;2024-02-28T01:51:46;6.60;99.90
4643;DHT22;2334;48.710;9.622;2024-02-28T01:54:14;6.70;99.90
4643;DHT22;2334;48.710;9.622;2024-02-28T01:56:41;6.60;99.90
4643;DHT22;2334;48.710;9.622;2024-02-28T01:59:11;6.70;99.90
4643;DHT22;2334;48.710;9.622;2024-02-28T02:01:38;6.70;99.90
4643;DHT22;2334;48.710;9.622;2024-02-28T02:04:05;6.70;99.90
4643;DHT22;2334;48.710;9.622;2024-02-28T02:06:33;6.70;99.90
4643;DHT22;2334;48.710;9.622;2024-02-28T02:09:01;6.70;99.90
4643;DHT22;2334;48.710;9.622;2024-02-28T02:11:28;6.80;99.90
4643;DHT22;2334;48.710;9.622;2024-02-28T02:13:55;6.80;99.90
4643;DHT22;2334;48.710;9.622;2024-02-28T02:16:22;6.80;99.90
4643;DHT22;2334;48.710;9.622;2024-02-28T02:18:51;6.80;99.90
4643;DHT22;2334;48.710;9.622;2024-02-28T02:21:20;6.80;99.90
4643;DHT22;2334;48.710;9.622;2024-02-28T02:23:51;6.80;99.90
4643;DHT22;2334;48.710;9.622;2024-02-28T02:26:18;6.80;99.90
4643;DHT22;2334;48.710;9.622;2024-02-28T02:28:44;6.80;99.90
4643;DHT22;2334;48.710;9.622;2024-02-28T02:31:12;6.80;99.90
4643;DHT22;2334;48.710;9.622;2024-02-28T02:33:39;6.70;99.90
4643;DHT22;2334;48.710;9.622;2024-02-28T02:36:06;6.70;99.90
4643;DHT22;2334;48.710;9.622;2024-02-28T02:38:33;6.70;99.90
4643;DHT22;2334;48.710;9.622;2024-02-28T02:41:02;6.70;99.90
4643;DHT22;2334;48.710;9.622;2024-02-28T02:43:29;6.70;99.90
4643;DHT22;2334;48.710;9.622;2024-02-28T02:45:56;6.70;99.90
4643;DHT22;2334;48.710;9.622;2024-02-28T02:48:23;6.70;99.90
4643;DHT22;2334;48.710;9.622;2024-02-28T02:50:50;6.70;99.90
4643;DHT22;2334;48.710;9.622;2024-02-28T02:53:17;6.70;99.90
4643;DHT22;2334;48.710;9.622;2024-02-28T02:55:44;6.70;99.90
4643;DHT22;2334;48.710;9.622;2024-02-28T02:58:12;6.60;99.90
4643;DHT22;2334;48.710;9.622;2024-02-28T03:00:39;6.60;99.90
4643;DHT22;2334;48.710;9.622;2024-02-28T03:03:06;6.50;99.90
4643;DHT22;2334;48.710;9.622;2024-02-28T03:05:33;6.50;99.90
4643;DHT22;2334;48.710;9.622;2024-02-28T03:08:00;6.50;99.90
4643;DHT22;2334;48.710;9.622;2024-02-28T03:10:28;6.50;99.90
4643;DHT22;2334;48.710;9.622;2024-02-28T03:12:55;6.50;99.90
4643;DHT22;2334;48.710;9.622;2024-02-28T03:15:23;6.40;99.90
4643;DHT22;2334;48.710;9.622;2024-02-28T03:17:50;6.40;99.90
4643;DHT22;2334;48.710;9.622;2024-02-28T03:20:17;6.40;99.90
4643;DHT22;2334;48.710;9.622;2024-02-28T03:22:46;6.40;99.90
4643;DHT22;2334;48.710;9.622;2024-02-28T03:25:13;6.50;99.90
4643;DHT22;2334;48.710;9.622;2024-02-28T03:27:40;6.50;99.90
4643;DHT22;2334;48.710;9.622;2024-02-28T03:30:07;6.50;99.90
4643;DHT22;2334;48.710;9.622;2024-02-28T03:32:36;6.50;99.90
4643;DHT22;2334;48.710;9.622;2024-02-28T03:35:03;6.50;99.90
4643;DHT22;2334;48.710;9.622;2024-02-28T03:37:34;6.50;99.90
4643;DHT22;2334;48.710;9.622;2024-02-28T03:40:01;6.50;99.90
4643;DHT22;2334;48.710;9.622;2024-02-28T03:42:28;6.50;99.90
4643;DHT22;2334;48.710;9.622;2024-02-28T03:44:55;6.50;99.90
4643;DHT22;2334;48.710;9.622;2024-02-28T03:47:22;6.50;99.90
4643;DHT22;2334;48.710;9.622;2024-02-28T03:49:51;6.40;99.90
4643;DHT22;2334;48.710;9.622;2024-02-28T03:52:18;6.50;99.90
4643;DHT22;2334;48.710;9.622;2024-02-28T03:54:44;6.50;99.90
4643;DHT22;2334;48.710;9.622;2024-02-28T03:57:12;6.50;99.90
4643;DHT22;2334;48.710;9.622;2024-02-28T03:59:40;6.50;99.90
4643;DHT22;2334;48.710;9.622;2024-02-28T04:02:07;6.50;99.90
4643;DHT22;2334;48.710;9.622;2024-02-28T04:04:34;6.50;99.90
4643;DHT22;2334;48.710;9.622;2024-02-28T04:07:02;6.60;99.90
4643;DHT22;2334;48.710;9.622;2024-02-28T04:09:29;6.60;99.90
4643;DHT22;2334;48.710;9.622;2024-02-28T04:11:56;6.50;99.90
4643;DHT22;2334;48.710;9.622;2024-02-28T04:14:23;6.60;99.90
4643;DHT22;2334;48.710;9.622;2024-02-28T04:16:50;6.60;99.90
4643;DHT22;2334;48.710;9.622;2024-02-28T04:19:17;6.50;99.90
4643;DHT22;2334;48.710;9.622;2024-02-28T04:21:44;6.60;99.90
4643;DHT22;2334;48.710;9.622;2024-02-28T04:24:12;6.50;99.90
4643;DHT22;2334;48.710;9.622;2024-02-28T04:26:39;6.60;99.90
4643;DHT22;2334;48.710;9.622;2024-02-28T04:29:06;6.50;99.90
4643;DHT22;2334;48.710;9.622;2024-02-28T04:31:41;6.50;99.90
4643;DHT22;2334;48.710;9.622;2024-02-28T04:34:08;6.50;99.90
4643;DHT22;2334;48.710;9.622;2024-02-28T04:36:35;6.50;99.90
4643;DHT22;2334;48.710;9.622;2024-02-28T04:39:02;6.50;99.90
4643;DHT22;2334;48.710;9.622;2024-02-28T04:41:33;6.50;99.90
4643;DHT22;2334;48.710;9.622;2024-02-28T04:43:59;6.50;99.90
4643;DHT22;2334;48.710;9.622;2024-02-28T04:46:26;6.50;99.90
4643;DHT22;2334;48.710;9.622;2024-02-28T04:48:53;6.50;99.90
4643;DHT22;2334;48.710;9.622;2024-02-28T04:51:20;6.50;99.90
4643;DHT22;2334;48.710;9.622;2024-02-28T04:53:47;6.50;99.90
4643;DHT22;2334;48.710;9.622;2024-02-28T04:56:13;6.50;99.90
4643;DHT22;2334;48.710;9.622;2024-02-28T04:58:42;6.50;99.90
4643;DHT22;2334;48.710;9.622;2024-02-28T05:01:09;6.60;99.90
4643;DHT22;2334;48.710;9.622;2024-02-28T05:03:35;6.50;99.90
4643;DHT22;2334;48.710;9.622;2024-02-28T05:06:03;6.50;99.90
4643;DHT22;2334;48.710;9.622;2024-02-28T05:08:30;6.60;99.90
4643;DHT22;2334;48.710;9.622;2024-02-28T05:10:56;6.60;99.90
4643;DHT22;2334;48.710;9.622;2024-02-28T05:13:23;6.60;99.90
4643;DHT22;2334;48.710;9.622;2024-02-28T05:15:52;6.60;99.90
4643;DHT22;2334;48.710;9.622;2024-02-28T05:18:19;6.80;99.90
4643;DHT22;2334;48.710;9.622;2024-02-28T05:20:46;6.80;99.90
4643;DHT22;2334;48.710;9.622;2024-02-28T05:23:12;6.80;99.90
4643;DHT22;2334;48.710;9.622;2024-02-28T05:25:40;6.80;99.90
4643;DHT22;2334;48.710;9.622;2024-02-28T05:28:07;6.90;99.90
4643;DHT22;2334;48.710;9.622;2024-02-28T05:30:34;6.90;99.90
4643;DHT22;2334;48.710;9.622;2024-02-28T05:33:03;6.90;99.90
4643;DHT22;2334;48.710;9.622;2024-02-28T05:35:30;6.90;99.90
4643;DHT22;2334;48.710;9.622;2024-02-28T05:37:57;6.90;99.90
4643;DHT22;2334;48.710;9.622;2024-02-28T05:40:24;6.80;99.90
4643;DHT22;2334;48.710;9.622;2024-02-28T05:42:51;6.80;99.90
4643;DHT22;2334;48.710;9.622;2024-02-28T05:45:18;6.80;99.90
4643;DHT22;2334;48.710;9.622;2024-02-28T05:47:45;6.70;99.90
4643;DHT22;2334;48.710;9.622;2024-02-28T05:50:14;6.80;99.90
4643;DHT22;2334;48.710;9.622;2024-02-28T05:52:41;6.80;99.90
4643;DHT22;2334;48.710;9.622;2024-02-28T05:55:09;6.80;99.90
4643;DHT22;2334;48.710;9.622;2024-02-28T05:57:37;6.70;99.90
4643;DHT22;2334;48.710;9.622;2024-02-28T06:00:05;6.70;99.90
4643;DHT22;2334;48.710;9.622;2024-02-28T06:02:35;6.70;99.90
4643;DHT22;2334;48.710;9.622;2024-02-28T06:05:03;6.70;99.90
4643;DHT22;2334;48.710;9.622;2024-02-28T06:07:31;6.70;99.90
4643;DHT22;2334;48.710;9.622;2024-02-28T06:09:58;6.70;99.90
4643;DHT22;2334;48.710;9.622;2024-02-28T06:12:25;6.70;99.90
4643;DHT22;2334;48.710;9.622;2024-02-28T06:14:52;6.60;99.90
4643;DHT22;2334;48.710;9.622;2024-02-28T06:17:20;6.50;99.90
4643;DHT22;2334;48.710;9.622;2024-02-28T06:19:47;6.50;99.90
4643;DHT22;2334;48.710;9.622;2024-02-28T06:22:14;6.50;99.90
4643;DHT22;2334;48.710;9.622;2024-02-28T06:24:42;6.60;99.90
4643;DHT22;2334;48.710;9.622;2024-02-28T06:27:09;6.50;99.90
4643;DHT22;2334;48.710;9.622;2024-02-28T06:29:38;6.40;99.90
4643;DHT22;2334;48.710;9.622;2024-02-28T06:32:06;6.50;99.90
4643;DHT22;2334;48.710;9.622;2024-02-28T06:34:33;6.40;99.90
4643;DHT22;2334;48.710;9.622;2024-02-28T06:37:00;6.40;99.90
4643;DHT22;2334;48.710;9.622;2024-02-28T06:39:26;6.50;99.90
4643;DHT22;2334;48.710;9.622;2024-02-28T06:41:55;6.40;99.90
4643;DHT22;2334;48.710;9.622;2024-02-28T06:44:21;6.40;99.90
4643;DHT22;2334;48.710;9.622;2024-02-28T06:46:48;6.40;99.90
4643;DHT22;2334;48.710;9.622;2024-02-28T06:49:16;6.50;99.90
4643;DHT22;2334;48.710;9.622;2024-02-28T06:51:43;6.60;99.90
4643;DHT22;2334;48.710;9.622;2024-02-28T06:54:10;6.60;99.90
4643;DHT22;2334;48.710;9.622;2024-02-28T06:56:37;6.60;99.90
4643;DHT22;2334;48.710;9.622;2024-02-28T06:59:05;6.50;99.90
4643;DHT22;2334;48.710;9.622;2024-02-28T07:01:33;6.50;99.90
4643;DHT22;2334;48.710;9.622;2024-02-28T07:04:00;6.50;99.90
4643;DHT22;2334;48.710;9.622;2024-02-28T07:06:27;6.60;99.90
4643;DHT22;2334;48.710;9.622;2024-02-28T07:08:53;6.60;99.90
4643;DHT22;2334;48.710;9.622;2024-02-28T07:11:20;6.60;99.90
4643;DHT22;2334;48.710;9.622;2024-02-28T07:13:48;6.70;99.90
4643;DHT22;2334;48.710;9.622;2024-02-28T07:16:16;6.70;99.90
4643;DHT22;2334;48.710;9.622;2024-02-28T07:18:43;6.70;99.90
4643;DHT22;2334;48.710;9.622;2024-02-28T07:21:10;6.60;99.90
4643;DHT22;2334;48.710;9.622;2024-02-28T07:23:39;6.60;99.90
4643;DHT22;2334;48.710;9.622;2024-02-28T07:26:06;6.60;99.90
4643;DHT22;2334;48.710;9.622;2024-02-28T07:28:33;6.60;99.90
4643;DHT22;2334;48.710;9.622;2024-02-28T07:31:00;6.70;99.90
4643;DHT22;2334;48.710;9.622;2024-02-28T07:33:28;6.60;99.90
4643;DHT22;2334;48.710;9.622;2024-02-28T07:35:55;6.60;99.90
4643;DHT22;2334;48.710;9.622;2024-02-28T07:38:26;6.60;99.90
4643;DHT22;2334;48.710;9.622;2024-02-28T07:40:54;6.60;99.90
4643;DHT22;2334;48.710;9.622;2024-02-28T07:43:21;6.60;99.90
4643;DHT22;2334;48.710;9.622;2024-02-28T07:45:48;6.60;99.90
4643;DHT22;2334;48.710;9.622;2024-02-28T07:48:15;6.60;99.90
4643;DHT22;2334;48.710;9.622;2024-02-28T07:50:44;6.70;99.90
4643;DHT22;2334;48.710;9.622;2024-02-28T07:53:11;6.70;99.90
4643;DHT22;2334;48.710;9.622;2024-02-28T07:55:38;6.80;99.90
4643;DHT22;2334;48.710;9.622;2024-02-28T07:58:05;6.80;99.90
4643;DHT22;2334;48.710;9.622;2024-02-28T08:00:32;6.80;99.90
4643;DHT22;2334;48.710;9.622;2024-02-28T08:03:00;6.90;99.90
4643;DHT22;2334;48.710;9.622;2024-02-28T08:05:26;7.00;99.90
4643;DHT22;2334;48.710;9.622;2024-02-28T08:07:55;7.10;99.90
4643;DHT22;2334;48.710;9.622;2024-02-28T08:10:22;7.10;99.90
4643;DHT22;2334;48.710;9.622;2024-02-28T08:12:49;7.10;99.90
4643;DHT22;2334;48.710;9.622;2024-02-28T08:15:16;7.10;99.90
4643;DHT22;2334;48.710;9.622;2024-02-28T08:17:43;7.10;99.90
4643;DHT22;2334;48.710;9.622;2024-02-28T08:20:10;7.30;99.90
4643;DHT22;2334;48.710;9.622;2024-02-28T08:22:37;7.40;99.90
4643;DHT22;2334;48.710;9.622;2024-02-28T08:25:07;7.40;99.90
4643;DHT22;2334;48.710;9.622;2024-02-28T08:27:36;7.30;99.90
4643;DHT22;2334;48.710;9.622;2024-02-28T08:30:05;7.30;99.90
4643;DHT22;2334;48.710;9.622;2024-02-28T08:32:32;7.20;99.90
4643;DHT22;2334;48.710;9.622;2024-02-28T08:34:59;7.30;99.90
4643;DHT22;2334;48.710;9.622;2024-02-28T08:37:26;7.30;99.90
4643;DHT22;2334;48.710;9.622;2024-02-28T08:39:54;7.30;99.90
4643;DHT22;2334;48.710;9.622;2024-02-28T08:42:24;7.40;99.90
4643;DHT22;2334;48.710;9.622;2024-02-28T08:44:51;7.40;99.90
4643;DHT22;2334;48.710;9.622;2024-02-28T08:47:22;7.20;99.90
4643;DHT22;2334;48.710;9.622;2024-02-28T08:49:50;7.20;99.90
4643;DHT22;2334;48.710;9.622;2024-02-28T08:52:17;7.10;99.90
4643;DHT22;2334;48.710;9.622;2024-02-28T08:54:44;7.10;99.90
4643;DHT22;2334;48.710;9.622;2024-02-28T08:57:10;7.10;99.90
4643;DHT22;2334;48.710;9.622;2024-02-28T08:59:39;7.00;99.90
4643;DHT22;2334;48.710;9.622;2024-02-28T09:02:06;6.90;99.90
4643;DHT22;2334;48.710;9.622;2024-02-28T09:04:33;6.90;99.90
4643;DHT22;2334;48.710;9.622;2024-02-28T09:07:00;6.90;99.90
4643;DHT22;2334;48.710;9.622;2024-02-28T09:09:27;6.90;99.90
4643;DHT22;2334;48.710;9.622;2024-02-28T09:11:55;6.90;99.90
4643;DHT22;2334;48.710;9.622;2024-02-28T09:14:22;6.90;99.90
4643;DHT22;2334;48.710;9.622;2024-02-28T09:16:50;6.90;99.90
4643;DHT22;2334;48.710;9.622;2024-02-28T09:19:19;6.90;99.90
4643;DHT22;2334;48.710;9.622;2024-02-28T09:21:46;6.90;99.90
4643;DHT22;2334;48.710;9.622;2024-02-28T09:24:13;6.90;99.90
4643;DHT22;2334;48.710;9.622;2024-02-28T09:26:40;6.90;99.90
4643;DHT22;2334;48.710;9.622;2024-02-28T09:29:07;6.90;99.90
4643;DHT22;2334;48.710;9.622;2024-02-28T09:31:34;6.90;99.90
4643;DHT22;2334;48.710;9.622;2024-02-28T09:34:02;6.90;99.90
4643;DHT22;2334;48.710;9.622;2024-02-28T09:36:33;6.90;99.90
4643;DHT22;2334;48.710;9.622;2024-02-28T09:39:00;6.90;99.90
4643;DHT22;2334;48.710;9.622;2024-02-28T09:41:27;7.00;99.90
4643;DHT22;2334;48.710;9.622;2024-02-28T09:43:54;6.90;99.90
4643;DHT22;2334;48.710;9.622;2024-02-28T09:46:21;6.90;99.90
4643;DHT22;2334;48.710;9.622;2024-02-28T09:48:49;6.90;99.90
4643;DHT22;2334;48.710;9.622;2024-02-28T09:51:18;6.90;99.90
4643;DHT22;2334;48.710;9.622;2024-02-28T09:53:49;6.90;99.90
4643;DHT22;2334;48.710;9.622;2024-02-28T09:56:16;7.00;99.90
4643;DHT22;2334;48.710;9.622;2024-02-28T09:58:44;6.90;99.90
4643;DHT22;2334;48.710;9.622;2024-02-28T10:01:11;6.90;99.90
4643;DHT22;2334;48.710;9.622;2024-02-28T10:03:43;7.00;99.90
4643;DHT22;2334;48.710;9.622;2024-02-28T10:06:10;6.90;99.90
4643;DHT22;2334;48.710;9.622;2024-02-28T10:08:40;6.90;99.90
4643;DHT22;2334;48.710;9.622;2024-02-28T10:11:08;6.90;99.90
4643;DHT22;2334;48.710;9.622;2024-02-28T10:13:36;6.90;99.90
4643;DHT22;2334;48.710;9.622;2024-02-28T10:16:06;6.90;99.90
4643;DHT22;2334;48.710;9.622;2024-02-28T10:18:33;7.00;99.90
4643;DHT22;2334;48.710;9.622;2024-02-28T10:20:59;7.00;99.90
4643;DHT22;2334;48.710;9.622;2024-02-28T10:23:26;7.00;99.90
4643;DHT22;2334;48.710;9.622;2024-02-28T10:25:55;7.00;99.90
4643;DHT22;2334;48.710;9.622;2024-02-28T10:28:22;7.00;99.90
4643;DHT22;2334;48.710;9.622;2024-02-28T10:30:49;7.00;99.90
4643;DHT22;2334;48.710;9.622;2024-02-28T10:33:16;7.00;99.90
4643;DHT22;2334;48.710;9.622;2024-02-28T10:35:43;7.00;99.90
4643;DHT22;2334;48.710;9.622;2024-02-28T10:38:11;7.00;99.90
4643;DHT22;2334;48.710;9.622;2024-02-28T10:40:39;7.00;99.90
4643;DHT22;2334;48.710;9.622;2024-02-28T10:43:09;7.00;99.90
4643;DHT22;2334;48.710;9.622;2024-02-28T10:45:36;7.00;99.90
4643;DHT22;2334;48.710;9.622;2024-02-28T10:48:04;7.00;99.90
4643;DHT22;2334;48.710;9.622;2024-02-28T10:50:31;7.10;99.90
4643;DHT22;2334;48.710;9.622;2024-02-28T10:53:01;7.10;99.90
4643;DHT22;2334;48.710;9.622;2024-02-28T10:55:33;7.10;99.90
4643;DHT22;2334;48.710;9.622;2024-02-28T10:58:03;7.10;99.90
4643;DHT22;2334;48.710;9.622;2024-02-28T11:00:32;7.10;99.90
4643;DHT22;2334;48.710;9.622;2024-02-28T11:02:59;7.10;99.90
4643;DHT22;2334;48.710;9.622;2024-02-28T11:05:35;7.10;99.90
4643;DHT22;2334;48.710;9.622;2024-02-28T11:08:05;7.20;99.90
4643;DHT22;2334;48.710;9.622;2024-02-28T11:10:32;7.30;99.90
4643;DHT22;2334;48.710;9.622;2024-02-28T11:12:59;7.40;99.90
4643;DHT22;2334;48.710;9.622;2024-02-28T11:15:26;7.50;99.90
4643;DHT22;2334;48.710;9.622;2024-02-28T11:18:07;7.60;99.90
4643;DHT22;2334;48.710;9.622;2024-02-28T11:20:34;7.60;99.90
4643;DHT22;2334;48.710;9.622;2024-02-28T11:23:01;7.60;99.90
4643;DHT22;2334;48.710;9.622;2024-02-28T11:25:28;7.60;99.90
4643;DHT22;2334;48.710;9.622;2024-02-28T11:27:55;7.60;99.90
4643;DHT22;2334;48.710;9.622;2024-02-28T11:30:22;7.60;99.90
4643;DHT22;2334;48.710;9.622;2024-02-28T11:32:52;7.50;99.90
4643;DHT22;2334;48.710;9.622;2024-02-28T11:35:21;7.50;99.90
4643;DHT22;2334;48.710;9.622;2024-02-28T11:37:49;7.50;99.90
4643;DHT22;2334;48.710;9.622;2024-02-28T11:40:16;7.50;99.90
4643;DHT22;2334;48.710;9.622;2024-02-28T11:42:43;7.40;99.90
4643;DHT22;2334;48.710;9.622;2024-02-28T11:45:10;7.40;99.90
4643;DHT22;2334;48.710;9.622;2024-02-28T11:47:37;7.50;99.90
4643;DHT22;2334;48.710;9.622;2024-02-28T11:50:05;7.50;99.90
4643;DHT22;2334;48.710;9.622;2024-02-28T11:52:34;7.40;99.90
4643;DHT22;2334;48.710;9.622;2024-02-28T11:55:00;7.40;99.90
4643;DHT22;2334;48.710;9.622;2024-02-28T11:57:27;7.40;99.90
4643;DHT22;2334;48.710;9.622;2024-02-28T12:00:01;7.50;99.90
4643;DHT22;2334;48.710;9.622;2024-02-28T12:02:29;7.50;99.90
4643;DHT22;2334;48.710;9.622;2024-02-28T12:05:00;7.40;99.90
4643;DHT22;2334;48.710;9.622;2024-02-28T12:07:27;7.50;99.90
4643;DHT22;2334;48.710;9.622;2024-02-28T12:09:55;7.50;99.90
4643;DHT22;2334;48.710;9.622;2024-02-28T12:12:24;7.50;99.90
4643;DHT22;2334;48.710;9.622;2024-02-28T12:14:51;7.50;99.90
4643;DHT22;2334;48.710;9.622;2024-02-28T12:17:18;7.50;99.90
4643;DHT22;2334;48.710;9.622;2024-02-28T12:19:45;7.40;99.90
4643;DHT22;2334;48.710;9.622;2024-02-28T12:22:12;7.40;99.90
4643;DHT22;2334;48.710;9.622;2024-02-28T12:24:39;7.30;99.90
4643;DHT22;2334;48.710;9.622;2024-02-28T12:27:07;7.30;99.90
4643;DHT22;2334;48.710;9.622;2024-02-28T12:29:34;7.30;99.90
4643;DHT22;2334;48.710;9.622;2024-02-28T12:32:02;7.30;99.90
4643;DHT22;2334;48.710;9.622;2024-02-28T12:34:29;7.30;99.90
4643;DHT22;2334;48.710;9.622;2024-02-28T12:36:55;7.30;99.90
4643;DHT22;2334;48.710;9.622;2024-02-28T12:39:23;7.30;99.90
4643;DHT22;2334;48.710;9.622;2024-02-28T12:41:50;7.30;99.90
4643;DHT22;2334;48.710;9.622;2024-02-28T12:44:18;7.40;99.90
4643;DHT22;2334;48.710;9.622;2024-02-28T12:46:45;7.40;99.90
4643;DHT22;2334;48.710;9.622;2024-02-28T12:49:12;7.50;99.90
4643;DHT22;2334;48.710;9.622;2024-02-28T12:51:40;7.50;99.90
4643;DHT22;2334;48.710;9.622;2024-02-28T12:54:07;7.50;99.90
4643;DHT22;2334;48.710;9.622;2024-02-28T12:56:35;7.60;99.90
4643;DHT22;2334;48.710;9.622;2024-02-28T12:59:02;7.60;99.90
4643;DHT22;2334;48.710;9.622;2024-02-28T13:01:30;7.70;99.90
4643;DHT22;2334;48.710;9.622;2024-02-28T13:03:57;7.70;99.90
4643;DHT22;2334;48.710;9.622;2024-02-28T13:06:25;7.70;99.90
4643;DHT22;2334;48.710;9.622;2024-02-28T13:08:52;7.60;99.90
4643;DHT22;2334;48.710;9.622;2024-02-28T13:11:20;7.60;99.90
4643;DHT22;2334;48.710;9.622;2024-02-28T13:13:48;7.50;99.90
4643;DHT22;2334;48.710;9.622;2024-02-28T13:16:15;7.60;99.90
4643;DHT22;2334;48.710;9.622;2024-02-28T13:18:44;7.70;99.90
4643;DHT22;2334;48.710;9.622;2024-02-28T13:21:12;7.60;99.90
4643;DHT22;2334;48.710;9.622;2024-02-28T13:23:39;7.70;99.90
4643;DHT22;2334;48.710;9.622;2024-02-28T13:26:06;7.80;99.90
4643;DHT22;2334;48.710;9.622;2024-02-28T13:28:34;7.80;99.90
4643;DHT22;2334;48.710;9.622;2024-02-28T13:31:02;7.80;99.90
4643;DHT22;2334;48.710;9.622;2024-02-28T13:33:29;7.70;99.90
4643;DHT22;2334;48.710;9.622;2024-02-28T13:35:57;7.60;99.90
4643;DHT22;2334;48.710;9.622;2024-02-28T13:38:24;7.60;99.90
4643;DHT22;2334;48.710;9.622;2024-02-28T13:40:51;7.60;99.90
4643;DHT22;2334;48.710;9.622;2024-02-28T13:43:19;7.60;99.90
4643;DHT22;2334;48.710;9.622;2024-02-28T13:45:47;7.60;99.90
4643;DHT22;2334;48.710;9.622;2024-02-28T13:48:16;7.60;99.90
4643;DHT22;2334;48.710;9.622;2024-02-28T13:50:44;7.70;99.90
4643;DHT22;2334;48.710;9.622;2024-02-28T13:53:14;7.80;99.90
4643;DHT22;2334;48.710;9.622;2024-02-28T13:55:42;7.70;99.90
4643;DHT22;2334;48.710;9.622;2024-02-28T13:58:10;7.70;99.90
4643;DHT22;2334;48.710;9.622;2024-02-28T14:00:38;7.90;99.90
4643;DHT22;2334;48.710;9.622;2024-02-28T14:03:06;7.80;99.90
4643;DHT22;2334;48.710;9.622;2024-02-28T14:05:33;7.70;99.90
4643;DHT22;2334;48.710;9.622;2024-02-28T14:08:00;7.90;99.90
4643;DHT22;2334;48.710;9.622;2024-02-28T14:10:30;7.90;99.90
4643;DHT22;2334;48.710;9.622;2024-02-28T14:12:57;7.80;99.90
4643;DHT22;2334;48.710;9.622;2024-02-28T14:15:24;7.70;99.90
4643;DHT22;2334;48.710;9.622;2024-02-28T14:17:51;7.70;99.90
4643;DHT22;2334;48.710;9.622;2024-02-28T14:20:18;7.70;99.90
4643;DHT22;2334;48.710;9.622;2024-02-28T14:22:45;7.70;99.90
4643;DHT22;2334;48.710;9.622;2024-02-28T14:25:13;7.80;99.90
4643;DHT22;2334;48.710;9.622;2024-02-28T14:27:45;7.80;99.90
4643;DHT22;2334;48.710;9.622;2024-02-28T14:30:12;7.80;99.90
4643;DHT22;2334;48.710;9.622;2024-02-28T14:32:40;7.80;99.90
4643;DHT22;2334;48.710;9.622;2024-02-28T14:35:09;7.80;99.90
4643;DHT22;2334;48.710;9.622;2024-02-28T14:37:37;7.70;99.90
4643;DHT22;2334;48.710;9.622;2024-02-28T14:40:07;7.70;99.90
4643;DHT22;2334;48.710;9.622;2024-02-28T14:42:36;7.70;99.90
4643;DHT22;2334;48.710;9.622;2024-02-28T14:45:07;7.70;99.90
4643;DHT22;2334;48.710;9.622;2024-02-28T14:47:34;7.70;99.90
4643;DHT22;2334;48.710;9.622;2024-02-28T14:50:02;7.70;99.90
4643;DHT22;2334;48.710;9.622;2024-02-28T14:52:29;7.70;99.90
4643;DHT22;2334;48.710;9.622;2024-02-28T14:54:56;7.70;99.90
4643;DHT22;2334;48.710;9.622;2024-02-28T14:57:23;7.70;99.90
4643;DHT22;2334;48.710;9.622;2024-02-28T14:59:50;7.70;99.90
4643;DHT22;2334;48.710;9.622;2024-02-28T15:02:18;7.70;99.90
4643;DHT22;2334;48.710;9.622;2024-02-28T15:04:45;7.70;99.90
4643;DHT22;2334;48.710;9.622;2024-02-28T15:07:13;7.70;99.90
4643;DHT22;2334;48.710;9.622;2024-02-28T15:09:39;7.70;99.90
4643;DHT22;2334;48.710;9.622;2024-02-28T15:12:07;7.70;99.90
4643;DHT22;2334;48.710;9.622;2024-02-28T15:14:34;7.70;99.90
4643;DHT22;2334;48.710;9.622;2024-02-28T15:17:01;7.70;99.90
4643;DHT22;2334;48.710;9.622;2024-02-28T15:19:29;7.70;99.90
4643;DHT22;2334;48.710;9.622;2024-02-28T15:21:56;7.70;99.90
4643;DHT22;2334;48.710;9.622;2024-02-28T15:24:24;7.70;99.90
4643;DHT22;2334;48.710;9.622;2024-02-28T15:26:52;7.70;99.90
4643;DHT22;2334;48.710;9.622;2024-02-28T15:29:19;7.60;99.90
4643;DHT22;2334;48.710;9.622;2024-02-28T15:31:47;7.60;99.90
4643;DHT22;2334;48.710;9.622;2024-02-28T15:34:14;7.60;99.90
4643;DHT22;2334;48.710;9.622;2024-02-28T15:36:42;7.60;99.90
4643;DHT22;2334;48.710;9.622;2024-02-28T15:39:09;7.70;99.90
4643;DHT22;2334;48.710;9.622;2024-02-28T15:41:36;7.60;99.90
4643;DHT22;2334;48.710;9.622;2024-02-28T15:44:03;7.50;99.90
4643;DHT22;2334;48.710;9.622;2024-02-28T15:46:30;7.50;99.90
4643;DHT22;2334;48.710;9.622;2024-02-28T15:48:56;7.40;99.90
4643;DHT22;2334;48.710;9.622;2024-02-28T15:51:23;7.40;99.90
4643;DHT22;2334;48.710;9.622;2024-02-28T15:53:52;7.40;99.90
4643;DHT22;2334;48.710;9.622;2024-02-28T15:56:20;7.40;99.90
4643;DHT22;2334;48.710;9.622;2024-02-28T15:58:47;7.30;99.90
4643;DHT22;2334;48.710;9.622;2024-02-28T16:01:14;7.30;99.90
4643;DHT22;2334;48.710;9.622;2024-02-28T16:03:41;7.30;99.90
4643;DHT22;2334;48.710;9.622;2024-02-28T16:06:08;7.30;99.90
4643;DHT22;2334;48.710;9.622;2024-02-28T16:11:59;7.30;99.90
4643;DHT22;2334;48.710;9.622;2024-02-28T16:14:25;7.30;99.90
4643;DHT22;2334;48.710;9.622;2024-02-28T16:16:52;7.30;99.90
4643;DHT22;2334;48.710;9.622;2024-02-28T16:19:19;7.30;99.90
4643;DHT22;2334;48.710;9.622;2024-02-28T16:21:46;7.30;99.90